createdAt,value
2022-11-27T00:03:03.449Z,5.90
2022-11-27T00:08:05.956Z,6.10
2022-11-27T00:13:08.540Z,6.10
2022-11-27T00:18:11.240Z,6.20
2022-11-27T00:23:13.702Z,6.40
2022-11-27T00:28:16.094Z,6.20
2022-11-27T00:33:18.454Z,6.20
2022-11-27T00:38:21.106Z,6.40
2022-11-27T00:43:23.518Z,6.20
2022-11-27T00:48:25.957Z,6.30
2022-11-27T00:53:28.678Z,6.40
2022-11-27T00:58:31.061Z,6.30
2022-11-27T01:03:35.415Z,6.20
2022-11-27T01:08:37.762Z,6.30
2022-11-27T01:13:40.352Z,6.20
2022-11-27T01:18:45.156Z,6.20
2022-11-27T01:23:49.092Z,6.00
2022-11-27T01:28:56.019Z,7.00
2022-11-27T01:34:02.581Z,7.60
2022-11-27T01:39:05.404Z,7.70
2022-11-27T01:44:26.077Z,7.80
2022-11-27T01:49:53.606Z,8.10
2022-11-27T01:55:01.151Z,8.00
2022-11-27T02:00:08.318Z,7.00
2022-11-27T02:05:18.904Z,6.60
2022-11-27T02:10:23.028Z,6.40
2022-11-27T02:15:34.032Z,6.30
2022-11-27T02:21:13.059Z,6.30
2022-11-27T02:26:43.808Z,6.40
2022-11-27T02:32:15.726Z,6.70
2022-11-27T02:37:48.246Z,7.40
2022-11-27T02:42:59.412Z,7.50
2022-11-27T02:48:03.465Z,7.90
2022-11-27T02:53:12.805Z,7.90
2022-11-27T02:58:20.879Z,7.40
2022-11-27T03:03:29.886Z,7.00
2022-11-27T03:09:10.747Z,6.60
2022-11-27T03:14:15.116Z,6.70
2022-11-27T03:19:45.355Z,6.60
2022-11-27T03:24:49.992Z,6.50
2022-11-27T03:29:56.903Z,6.30
2022-11-27T03:34:59.701Z,6.40
2022-11-27T03:40:03.710Z,6.50
2022-11-27T03:45:35.097Z,6.80
2022-11-27T03:51:11.512Z,6.60
2022-11-27T03:56:17.451Z,6.40
2022-11-27T04:01:22.900Z,6.40
2022-11-27T04:06:25.378Z,6.70
2022-11-27T04:11:27.710Z,6.90
2022-11-27T04:16:30.511Z,6.60
2022-11-27T04:21:33.013Z,6.70
2022-11-27T04:26:35.329Z,6.50
2022-11-27T04:31:37.875Z,6.40
2022-11-27T04:36:40.425Z,6.50
2022-11-27T04:41:42.794Z,6.50
2022-11-27T04:46:45.343Z,6.50
2022-11-27T04:51:47.879Z,6.50
2022-11-27T04:56:50.295Z,6.70
2022-11-27T05:01:52.794Z,6.60
2022-11-27T05:06:55.174Z,6.70
2022-11-27T05:11:57.571Z,6.70
2022-11-27T05:17:00.333Z,7.30
2022-11-27T05:22:02.686Z,7.40
2022-11-27T05:27:05.038Z,7.30
2022-11-27T05:32:07.480Z,6.70
2022-11-27T05:37:11.243Z,6.50
2022-11-27T05:42:15.248Z,6.60
2022-11-27T05:47:17.701Z,6.30
2022-11-27T05:52:20.109Z,6.50
2022-11-27T05:57:22.929Z,6.50
2022-11-27T06:02:29.390Z,6.50
2022-11-27T06:07:32.589Z,6.50
2022-11-27T06:12:35.294Z,6.50
2022-11-27T06:17:37.710Z,6.40
2022-11-27T06:22:40.191Z,6.50
2022-11-27T06:27:42.552Z,6.40
2022-11-27T06:32:45.682Z,6.60
2022-11-27T06:37:48.249Z,6.60
2022-11-27T06:42:50.670Z,6.60
2022-11-27T06:47:53.072Z,6.50
2022-11-27T06:52:55.549Z,6.40
2022-11-27T06:57:58.509Z,6.50
2022-11-27T07:03:00.898Z,6.60
2022-11-27T07:08:03.372Z,6.60
2022-11-27T07:13:05.805Z,6.60
2022-11-27T07:18:08.289Z,6.60
2022-11-27T07:23:10.773Z,6.70
2022-11-27T07:28:18.564Z,6.90
2022-11-27T07:33:21.857Z,7.00
2022-11-27T07:38:24.300Z,7.20
2022-11-27T07:43:26.887Z,6.90
2022-11-27T07:48:29.259Z,7.00
2022-11-27T07:53:31.650Z,7.30
2022-11-27T07:58:34.755Z,7.50
2022-11-27T08:03:37.347Z,7.50
2022-11-27T08:08:39.713Z,7.30
2022-11-27T08:13:42.138Z,7.30
2022-11-27T08:18:44.768Z,7.50
2022-11-27T08:23:47.154Z,7.60
2022-11-27T08:28:52.944Z,7.50
2022-11-27T08:33:55.528Z,7.60
2022-11-27T08:38:58.005Z,7.40
2022-11-27T08:44:00.384Z,7.40
2022-11-27T08:49:02.829Z,7.50
2022-11-27T08:54:05.332Z,7.50
2022-11-27T08:59:07.721Z,7.60
2022-11-27T09:04:10.240Z,7.80
2022-11-27T09:09:12.805Z,7.60
2022-11-27T09:14:15.234Z,7.80
2022-11-27T09:19:18.213Z,7.80
2022-11-27T09:24:20.650Z,7.90
2022-11-27T09:29:23.073Z,8.20
2022-11-27T09:34:25.472Z,8.50
2022-11-27T09:39:33.271Z,8.40
2022-11-27T09:44:49.829Z,8.70
2022-11-27T09:49:57.609Z,8.60
2022-11-27T09:55:13.359Z,8.70
2022-11-27T10:00:18.665Z,9.10
2022-11-27T10:05:31.219Z,9.60
2022-11-27T10:10:33.511Z,9.70
2022-11-27T10:16:01.408Z,9.90
2022-11-27T10:21:27.519Z,10.10
2022-11-27T10:26:39.011Z,10.10
2022-11-27T10:31:46.326Z,9.70
2022-11-27T10:36:53.521Z,9.50
2022-11-27T10:42:03.630Z,10.00
2022-11-27T10:47:10.123Z,9.70
2022-11-27T10:52:19.279Z,9.10
2022-11-27T10:57:31.745Z,8.80
2022-11-27T11:02:38.586Z,8.80
2022-11-27T11:07:41.246Z,8.80
2022-11-27T11:12:44.110Z,8.70
2022-11-27T11:17:46.577Z,8.90
2022-11-27T11:22:49.624Z,9.50
2022-11-27T11:27:53.039Z,9.90
2022-11-27T11:33:03.897Z,9.50
2022-11-27T11:38:17.017Z,9.90
2022-11-27T11:43:28.356Z,9.90
2022-11-27T11:48:30.751Z,9.90
2022-11-27T11:53:45.435Z,10.00
2022-11-27T11:58:54.169Z,10.10
2022-11-27T12:04:13.447Z,9.50
2022-11-27T12:09:42.591Z,9.70
2022-11-27T12:15:02.872Z,9.40
2022-11-27T12:20:33.930Z,9.60
2022-11-27T12:25:57.849Z,9.80
2022-11-27T12:31:03.328Z,9.70
2022-11-27T12:36:49.040Z,10.30
2022-11-27T12:42:28.875Z,10.50
2022-11-27T12:47:42.829Z,9.90
2022-11-27T12:52:54.226Z,9.40
2022-11-27T12:58:05.747Z,9.00
2022-11-27T13:03:30.709Z,8.70
2022-11-27T13:08:52.543Z,8.40
2022-11-27T13:14:09.312Z,8.50
2022-11-27T13:19:32.924Z,8.60
2022-11-27T13:24:36.318Z,9.10
2022-11-27T13:29:53.881Z,9.10
2022-11-27T13:34:59.418Z,9.60
2022-11-27T13:40:17.577Z,9.80
2022-11-27T13:45:33.935Z,9.60
2022-11-27T13:50:44.542Z,9.60
2022-11-27T13:55:56.704Z,9.20
2022-11-27T14:01:00.168Z,9.00
2022-11-27T14:06:02.739Z,9.00
2022-11-27T14:11:08.799Z,8.60
2022-11-27T14:16:26.601Z,8.90
2022-11-27T14:21:44.083Z,8.50
2022-11-27T14:26:46.490Z,8.20
2022-11-27T14:32:00.006Z,8.80
2022-11-27T14:37:02.498Z,8.80
2022-11-27T14:42:07.930Z,7.90
2022-11-27T14:47:22.675Z,7.90
2022-11-27T14:52:26.192Z,7.90
2022-11-27T14:57:30.420Z,7.60
2022-11-27T15:02:33.043Z,7.80
2022-11-27T15:07:45.445Z,8.20
2022-11-27T15:12:51.007Z,7.90
2022-11-27T15:18:05.915Z,7.40
2022-11-27T15:23:26.004Z,7.30
2022-11-27T15:28:37.698Z,7.10
2022-11-27T15:33:40.043Z,7.90
2022-11-27T15:38:43.509Z,8.80
2022-11-27T15:43:46.055Z,7.60
2022-11-27T15:48:48.372Z,7.10
2022-11-27T15:53:51.070Z,7.10
2022-11-27T15:58:53.477Z,6.90
2022-11-27T16:03:55.999Z,6.80
2022-11-27T16:09:01.591Z,7.50
2022-11-27T16:14:04.365Z,6.30
2022-11-27T16:19:06.974Z,6.60
2022-11-27T16:24:12.890Z,8.10
2022-11-27T16:29:15.546Z,8.30
2022-11-27T16:34:18.057Z,7.60
2022-11-27T16:39:20.683Z,7.50
2022-11-27T16:44:23.132Z,8.40
2022-11-27T16:49:25.748Z,9.10
2022-11-27T16:54:28.522Z,9.10
2022-11-27T16:59:31.612Z,8.60
2022-11-27T17:04:34.080Z,7.70
2022-11-27T17:09:37.234Z,6.80
2022-11-27T17:14:39.813Z,6.30
2022-11-27T17:19:43.593Z,6.00
2022-11-27T17:24:46.148Z,6.90
2022-11-27T17:29:51.626Z,7.40
2022-11-27T17:34:54.146Z,8.00
2022-11-27T17:39:56.855Z,7.50
2022-11-27T17:44:59.235Z,8.20
2022-11-27T17:50:01.650Z,8.10
2022-11-27T17:55:04.559Z,7.40
2022-11-27T18:00:08.715Z,6.60
2022-11-27T18:05:16.403Z,6.80
2022-11-27T18:10:19.523Z,6.60
2022-11-27T18:15:21.917Z,6.30
2022-11-27T18:20:24.448Z,6.10
2022-11-27T18:25:27.167Z,5.90
2022-11-27T18:30:29.744Z,6.00
2022-11-27T18:35:32.494Z,6.00
2022-11-27T18:40:39.890Z,5.60
2022-11-27T18:45:42.626Z,5.60
2022-11-27T18:50:45.844Z,6.30
2022-11-27T18:55:52.618Z,6.30
2022-11-27T19:00:57.576Z,6.60
2022-11-27T19:06:01.857Z,7.00
2022-11-27T19:11:07.966Z,7.10
2022-11-27T19:16:18.823Z,6.60
2022-11-27T19:21:24.199Z,6.40
2022-11-27T19:26:34.432Z,6.50
2022-11-27T19:31:39.809Z,6.30
2022-11-27T19:36:42.972Z,7.40
2022-11-27T19:41:45.529Z,7.50
2022-11-27T19:46:49.812Z,7.20
2022-11-27T19:51:53.169Z,6.60
2022-11-27T19:56:55.708Z,6.20
2022-11-27T20:01:58.802Z,5.90
2022-11-27T20:07:04.857Z,7.40
2022-11-27T20:12:07.483Z,8.20
2022-11-27T20:17:10.272Z,8.00
2022-11-27T20:22:13.283Z,7.00
2022-11-27T20:27:16.085Z,6.20
2022-11-27T20:32:18.387Z,7.10
2022-11-27T20:37:20.965Z,6.40
2022-11-27T20:42:24.499Z,6.50
2022-11-27T20:47:28.523Z,6.70
2022-11-27T20:52:31.153Z,6.90
2022-11-27T20:57:35.050Z,6.00
2022-11-27T21:02:41.478Z,5.70
2022-11-27T21:07:43.966Z,5.70
2022-11-27T21:12:47.104Z,5.50
2022-11-27T21:17:49.923Z,5.70
2022-11-27T21:22:53.629Z,5.80
2022-11-27T21:27:58.123Z,6.30
2022-11-27T21:33:01.063Z,6.00
2022-11-27T21:38:03.589Z,5.70
2022-11-27T21:43:06.566Z,6.50
2022-11-27T21:48:14.070Z,6.10
2022-11-27T21:53:16.922Z,5.10
2022-11-27T21:58:19.361Z,5.10
2022-11-27T22:03:21.799Z,5.30
2022-11-27T22:08:24.233Z,6.40
2022-11-27T22:13:28.916Z,6.70
2022-11-27T22:18:31.371Z,6.30
2022-11-27T22:23:34.305Z,5.70
2022-11-27T22:28:37.031Z,5.90
2022-11-27T22:33:41.272Z,5.20
2022-11-27T22:38:46.146Z,5.50
2022-11-27T22:43:49.147Z,6.50
2022-11-27T22:48:56.344Z,6.90
2022-11-27T22:53:59.067Z,6.50
2022-11-27T22:59:31.220Z,7.00
2022-11-27T23:04:26.766Z,7.10
2022-11-27T23:09:29.658Z,7.50
2022-11-27T23:14:32.047Z,7.50
2022-11-27T23:19:34.640Z,7.70
2022-11-27T23:24:37.076Z,7.00
2022-11-27T23:29:39.638Z,6.00
2022-11-27T23:34:42.282Z,4.50
2022-11-27T23:39:44.907Z,5.00
2022-11-27T23:44:47.354Z,6.30
2022-11-27T23:49:49.793Z,6.00
2022-11-27T23:54:52.316Z,5.90
2022-11-27T23:59:55.081Z,6.50
